sensor_id;sensor_type;location;lat;lon;timestamp;temperature;humidity
34768;DHT22;21755;43.608;1.236;2022-09-02T00:01:19;22.60;99.90
34768;DHT22;21755;43.608;1.236;2022-09-02T00:03:48;22.60;99.90
34768;DHT22;21755;43.608;1.236;2022-09-02T00:06:14;23.20;99.90
34768;DHT22;21755;43.608;1.236;2022-09-02T00:08:40;23.50;99.90
34768;DHT22;21755;43.608;1.236;2022-09-02T00:11:08;23.40;99.90
34768;DHT22;21755;43.608;1.236;2022-09-02T00:13:35;23.10;99.90
34768;DHT22;21755;43.608;1.236;2022-09-02T00:16:02;22.80;99.90
34768;DHT22;21755;43.608;1.236;2022-09-02T00:18:29;23.00;99.90
34768;DHT22;21755;43.608;1.236;2022-09-02T00:20:55;23.40;99.90
34768;DHT22;21755;43.608;1.236;2022-09-02T00:23:21;23.60;99.90
34768;DHT22;21755;43.608;1.236;2022-09-02T00:25:47;23.90;99.90
34768;DHT22;21755;43.608;1.236;2022-09-02T00:28:14;23.70;99.90
34768;DHT22;21755;43.608;1.236;2022-09-02T00:30:41;23.40;99.90
34768;DHT22;21755;43.608;1.236;2022-09-02T00:33:09;23.40;99.90
34768;DHT22;21755;43.608;1.236;2022-09-02T00:35:35;23.60;99.90
34768;DHT22;21755;43.608;1.236;2022-09-02T00:38:02;23.70;99.90
34768;DHT22;21755;43.608;1.236;2022-09-02T00:40:28;23.60;99.90
34768;DHT22;21755;43.608;1.236;2022-09-02T00:42:54;23.50;99.90
34768;DHT22;21755;43.608;1.236;2022-09-02T00:45:21;23.30;99.90
34768;DHT22;21755;43.608;1.236;2022-09-02T00:47:47;23.10;99.90
34768;DHT22;21755;43.608;1.236;2022-09-02T00:50:26;22.80;99.90
34768;DHT22;21755;43.608;1.236;2022-09-02T00:52:59;22.50;99.90
34768;DHT22;21755;43.608;1.236;2022-09-02T00:55:30;22.10;99.90
34768;DHT22;21755;43.608;1.236;2022-09-02T00:58:28;22.50;99.90
34768;DHT22;21755;43.608;1.236;2022-09-02T01:00:56;22.60;99.90
34768;DHT22;21755;43.608;1.236;2022-09-02T01:03:25;22.60;99.90
34768;DHT22;21755;43.608;1.236;2022-09-02T01:05:53;22.50;99.90
34768;DHT22;21755;43.608;1.236;2022-09-02T01:08:26;22.40;99.90
34768;DHT22;21755;43.608;1.236;2022-09-02T01:10:55;22.20;99.90
34768;DHT22;21755;43.608;1.236;2022-09-02T01:13:26;22.20;99.90
34768;DHT22;21755;43.608;1.236;2022-09-02T01:16:30;22.40;99.90
34768;DHT22;21755;43.608;1.236;2022-09-02T01:19:01;22.80;99.90
34768;DHT22;21755;43.608;1.236;2022-09-02T01:21:28;22.90;99.90
34768;DHT22;21755;43.608;1.236;2022-09-02T01:23:53;22.60;99.90
34768;DHT22;21755;43.608;1.236;2022-09-02T01:26:20;22.20;99.90
34768;DHT22;21755;43.608;1.236;2022-09-02T01:28:46;22.00;99.90
34768;DHT22;21755;43.608;1.236;2022-09-02T01:31:12;21.90;99.90
34768;DHT22;21755;43.608;1.236;2022-09-02T01:33:38;21.90;99.90
34768;DHT22;21755;43.608;1.236;2022-09-02T01:36:04;21.90;99.90
34768;DHT22;21755;43.608;1.236;2022-09-02T01:38:30;21.80;99.90
34768;DHT22;21755;43.608;1.236;2022-09-02T01:40:57;21.70;99.90
34768;DHT22;21755;43.608;1.236;2022-09-02T01:43:24;21.80;99.90
34768;DHT22;21755;43.608;1.236;2022-09-02T01:45:53;21.90;99.90
34768;DHT22;21755;43.608;1.236;2022-09-02T01:48:21;21.80;99.90
34768;DHT22;21755;43.608;1.236;2022-09-02T01:51:00;21.80;99.90
34768;DHT22;21755;43.608;1.236;2022-09-02T01:53:26;21.90;99.90
34768;DHT22;21755;43.608;1.236;2022-09-02T01:55:53;22.10;99.90
34768;DHT22;21755;43.608;1.236;2022-09-02T01:58:19;21.80;99.90
34768;DHT22;21755;43.608;1.236;2022-09-02T02:00:46;21.60;99.90
34768;DHT22;21755;43.608;1.236;2022-09-02T02:03:12;21.70;99.90
34768;DHT22;21755;43.608;1.236;2022-09-02T02:05:38;22.00;99.90
34768;DHT22;21755;43.608;1.236;2022-09-02T02:08:05;22.00;99.90
34768;DHT22;21755;43.608;1.236;2022-09-02T02:10:31;21.90;99.90
34768;DHT22;21755;43.608;1.236;2022-09-02T02:12:59;22.00;99.90
34768;DHT22;21755;43.608;1.236;2022-09-02T02:15:25;21.90;99.90
34768;DHT22;21755;43.608;1.236;2022-09-02T02:17:51;21.80;99.90
34768;DHT22;21755;43.608;1.236;2022-09-02T02:20:19;21.90;99.90
34768;DHT22;21755;43.608;1.236;2022-09-02T02:22:46;21.70;99.90
34768;DHT22;21755;43.608;1.236;2022-09-02T02:25:13;21.50;99.90
34768;DHT22;21755;43.608;1.236;2022-09-02T02:27:40;21.50;99.90
34768;DHT22;21755;43.608;1.236;2022-09-02T02:30:08;21.80;99.90
34768;DHT22;21755;43.608;1.236;2022-09-02T02:32:34;21.80;99.90
34768;DHT22;21755;43.608;1.236;2022-09-02T02:35:00;21.80;99.90
34768;DHT22;21755;43.608;1.236;2022-09-02T02:37:27;22.10;99.90
34768;DHT22;21755;43.608;1.236;2022-09-02T02:39:53;22.10;99.90
34768;DHT22;21755;43.608;1.236;2022-09-02T02:42:21;21.70;99.90
34768;DHT22;21755;43.608;1.236;2022-09-02T02:44:46;21.70;99.90
34768;DHT22;21755;43.608;1.236;2022-09-02T02:47:12;21.50;99.90
34768;DHT22;21755;43.608;1.236;2022-09-02T02:49:41;21.50;99.90
34768;DHT22;21755;43.608;1.236;2022-09-02T02:52:08;21.50;99.90
34768;DHT22;21755;43.608;1.236;2022-09-02T02:54:35;21.30;99.90
34768;DHT22;21755;43.608;1.236;2022-09-02T02:57:02;21.20;99.90
34768;DHT22;21755;43.608;1.236;2022-09-02T02:59:28;21.40;99.90
34768;DHT22;21755;43.608;1.236;2022-09-02T03:01:55;21.40;99.90
34768;DHT22;21755;43.608;1.236;2022-09-02T03:04:21;21.20;99.90
34768;DHT22;21755;43.608;1.236;2022-09-02T03:06:47;21.10;99.90
34768;DHT22;21755;43.608;1.236;2022-09-02T03:09:13;21.10;99.90
34768;DHT22;21755;43.608;1.236;2022-09-02T03:11:39;21.10;99.90
34768;DHT22;21755;43.608;1.236;2022-09-02T03:14:05;21.00;99.90
34768;DHT22;21755;43.608;1.236;2022-09-02T03:16:34;21.20;99.90
34768;DHT22;21755;43.608;1.236;2022-09-02T03:19:01;21.20;99.90
34768;DHT22;21755;43.608;1.236;2022-09-02T03:21:27;21.50;99.90
34768;DHT22;21755;43.608;1.236;2022-09-02T03:23:53;21.60;99.90
34768;DHT22;21755;43.608;1.236;2022-09-02T03:26:23;21.50;99.90
34768;DHT22;21755;43.608;1.236;2022-09-02T03:28:53;21.40;99.90
34768;DHT22;21755;43.608;1.236;2022-09-02T03:31:23;21.50;99.90
34768;DHT22;21755;43.608;1.236;2022-09-02T03:33:50;21.70;99.90
34768;DHT22;21755;43.608;1.236;2022-09-02T03:36:28;21.70;99.90
34768;DHT22;21755;43.608;1.236;2022-09-02T03:38:55;21.50;99.90
34768;DHT22;21755;43.608;1.236;2022-09-02T03:41:22;21.40;99.90
34768;DHT22;21755;43.608;1.236;2022-09-02T03:43:48;21.30;99.90
34768;DHT22;21755;43.608;1.236;2022-09-02T03:46:14;21.20;99.90
34768;DHT22;21755;43.608;1.236;2022-09-02T03:48:41;21.20;99.90
34768;DHT22;21755;43.608;1.236;2022-09-02T03:51:07;21.00;99.90
34768;DHT22;21755;43.608;1.236;2022-09-02T03:53:33;21.10;99.90
34768;DHT22;21755;43.608;1.236;2022-09-02T03:56:09;21.40;99.90
34768;DHT22;21755;43.608;1.236;2022-09-02T03:58:37;21.20;99.90
34768;DHT22;21755;43.608;1.236;2022-09-02T04:01:04;21.30;99.90
34768;DHT22;21755;43.608;1.236;2022-09-02T04:03:30;21.20;99.90
34768;DHT22;21755;43.608;1.236;2022-09-02T04:05:56;21.10;99.90
34768;DHT22;21755;43.608;1.236;2022-09-02T04:08:23;20.80;99.90
34768;DHT22;21755;43.608;1.236;2022-09-02T04:10:49;20.70;99.90
34768;DHT22;21755;43.608;1.236;2022-09-02T04:13:16;20.80;99.90
34768;DHT22;21755;43.608;1.236;2022-09-02T04:15:43;20.70;99.90
34768;DHT22;21755;43.608;1.236;2022-09-02T04:18:12;20.70;99.90
34768;DHT22;21755;43.608;1.236;2022-09-02T04:20:39;20.60;99.90
34768;DHT22;21755;43.608;1.236;2022-09-02T04:23:06;20.70;99.90
34768;DHT22;21755;43.608;1.236;2022-09-02T04:25:32;20.90;99.90
34768;DHT22;21755;43.608;1.236;2022-09-02T04:27:59;20.90;99.90
34768;DHT22;21755;43.608;1.236;2022-09-02T04:30:25;20.70;99.90
34768;DHT22;21755;43.608;1.236;2022-09-02T04:32:52;20.40;99.90
34768;DHT22;21755;43.608;1.236;2022-09-02T04:35:18;20.60;99.90
34768;DHT22;21755;43.608;1.236;2022-09-02T04:37:44;20.70;99.90
34768;DHT22;21755;43.608;1.236;2022-09-02T04:40:12;20.70;99.90
34768;DHT22;21755;43.608;1.236;2022-09-02T04:42:38;20.50;99.90
34768;DHT22;21755;43.608;1.236;2022-09-02T04:45:04;20.30;99.90
34768;DHT22;21755;43.608;1.236;2022-09-02T04:47:31;20.50;99.90
34768;DHT22;21755;43.608;1.236;2022-09-02T04:49:56;20.40;99.90
34768;DHT22;21755;43.608;1.236;2022-09-02T04:52:23;20.50;99.90
34768;DHT22;21755;43.608;1.236;2022-09-02T04:54:50;20.50;99.90
34768;DHT22;21755;43.608;1.236;2022-09-02T04:57:16;20.50;99.90
34768;DHT22;21755;43.608;1.236;2022-09-02T04:59:42;20.70;99.90
34768;DHT22;21755;43.608;1.236;2022-09-02T05:02:08;20.50;99.90
34768;DHT22;21755;43.608;1.236;2022-09-02T05:04:34;20.30;99.90
34768;DHT22;21755;43.608;1.236;2022-09-02T05:07:00;20.40;99.90
34768;DHT22;21755;43.608;1.236;2022-09-02T05:09:31;20.60;99.90
34768;DHT22;21755;43.608;1.236;2022-09-02T05:11:57;20.20;99.90
34768;DHT22;21755;43.608;1.236;2022-09-02T05:14:24;20.40;99.90
34768;DHT22;21755;43.608;1.236;2022-09-02T05:16:50;20.40;99.90
34768;DHT22;21755;43.608;1.236;2022-09-02T05:19:20;20.20;99.90
34768;DHT22;21755;43.608;1.236;2022-09-02T05:21:48;20.40;99.90
34768;DHT22;21755;43.608;1.236;2022-09-02T05:24:16;20.60;99.90
34768;DHT22;21755;43.608;1.236;2022-09-02T05:26:42;20.40;99.90
34768;DHT22;21755;43.608;1.236;2022-09-02T05:29:10;20.20;99.90
34768;DHT22;21755;43.608;1.236;2022-09-02T05:31:38;20.30;99.90
34768;DHT22;21755;43.608;1.236;2022-09-02T05:34:06;20.10;99.90
34768;DHT22;21755;43.608;1.236;2022-09-02T05:36:32;20.10;99.90
34768;DHT22;21755;43.608;1.236;2022-09-02T05:38:59;20.20;99.90
34768;DHT22;21755;43.608;1.236;2022-09-02T05:41:26;20.10;99.90
34768;DHT22;21755;43.608;1.236;2022-09-02T05:43:54;20.10;99.90
34768;DHT22;21755;43.608;1.236;2022-09-02T05:46:22;20.10;99.90
34768;DHT22;21755;43.608;1.236;2022-09-02T05:48:50;20.10;99.90
34768;DHT22;21755;43.608;1.236;2022-09-02T05:51:43;20.10;99.90
34768;DHT22;21755;43.608;1.236;2022-09-02T05:54:13;20.00;99.90
34768;DHT22;21755;43.608;1.236;2022-09-02T05:56:41;19.90;99.90
34768;DHT22;21755;43.608;1.236;2022-09-02T05:59:07;19.90;99.90
34768;DHT22;21755;43.608;1.236;2022-09-02T06:01:34;19.90;99.90
34768;DHT22;21755;43.608;1.236;2022-09-02T06:04:01;19.90;99.90
34768;DHT22;21755;43.608;1.236;2022-09-02T06:06:30;19.80;99.90
34768;DHT22;21755;43.608;1.236;2022-09-02T06:08:57;19.80;99.90
34768;DHT22;21755;43.608;1.236;2022-09-02T06:11:23;19.80;99.90
34768;DHT22;21755;43.608;1.236;2022-09-02T06:13:50;19.80;99.90
34768;DHT22;21755;43.608;1.236;2022-09-02T06:16:20;19.90;99.90
34768;DHT22;21755;43.608;1.236;2022-09-02T06:18:47;19.90;99.90
34768;DHT22;21755;43.608;1.236;2022-09-02T06:21:14;20.00;99.90
34768;DHT22;21755;43.608;1.236;2022-09-02T06:23:40;19.90;99.90
34768;DHT22;21755;43.608;1.236;2022-09-02T06:26:08;19.90;99.90
34768;DHT22;21755;43.608;1.236;2022-09-02T06:28:35;19.80;99.90
34768;DHT22;21755;43.608;1.236;2022-09-02T06:31:13;19.90;99.90
34768;DHT22;21755;43.608;1.236;2022-09-02T06:33:40;19.90;99.90
34768;DHT22;21755;43.608;1.236;2022-09-02T06:36:09;20.00;99.90
34768;DHT22;21755;43.608;1.236;2022-09-02T06:38:40;20.10;99.90
34768;DHT22;21755;43.608;1.236;2022-09-02T06:41:12;20.20;99.90
34768;DHT22;21755;43.608;1.236;2022-09-02T06:43:38;20.20;99.90
34768;DHT22;21755;43.608;1.236;2022-09-02T06:46:05;20.20;99.90
34768;DHT22;21755;43.608;1.236;2022-09-02T06:48:31;20.30;99.90
34768;DHT22;21755;43.608;1.236;2022-09-02T06:50:57;20.30;99.90
34768;DHT22;21755;43.608;1.236;2022-09-02T06:53:23;20.30;99.90
34768;DHT22;21755;43.608;1.236;2022-09-02T06:55:49;20.40;99.90
34768;DHT22;21755;43.608;1.236;2022-09-02T06:58:15;20.40;99.90
34768;DHT22;21755;43.608;1.236;2022-09-02T07:00:42;20.40;99.90
34768;DHT22;21755;43.608;1.236;2022-09-02T07:03:09;20.40;99.90
34768;DHT22;21755;43.608;1.236;2022-09-02T07:06:02;20.30;99.90
34768;DHT22;21755;43.608;1.236;2022-09-02T07:08:29;20.20;99.90
34768;DHT22;21755;43.608;1.236;2022-09-02T07:10:55;20.30;99.90
34768;DHT22;21755;43.608;1.236;2022-09-02T07:13:21;20.30;99.90
34768;DHT22;21755;43.608;1.236;2022-09-02T07:15:47;20.20;99.90
34768;DHT22;21755;43.608;1.236;2022-09-02T07:18:13;20.20;99.90
34768;DHT22;21755;43.608;1.236;2022-09-02T07:20:39;20.20;99.90
34768;DHT22;21755;43.608;1.236;2022-09-02T07:23:04;20.40;99.90
34768;DHT22;21755;43.608;1.236;2022-09-02T07:25:30;20.40;99.90
34768;DHT22;21755;43.608;1.236;2022-09-02T07:27:56;20.40;99.90
34768;DHT22;21755;43.608;1.236;2022-09-02T07:30:22;20.40;99.90
34768;DHT22;21755;43.608;1.236;2022-09-02T07:32:48;20.40;99.90
34768;DHT22;21755;43.608;1.236;2022-09-02T07:35:14;20.50;99.90
34768;DHT22;21755;43.608;1.236;2022-09-02T07:37:40;20.50;99.90
34768;DHT22;21755;43.608;1.236;2022-09-02T07:40:07;20.50;99.90
34768;DHT22;21755;43.608;1.236;2022-09-02T07:42:35;20.50;99.90
34768;DHT22;21755;43.608;1.236;2022-09-02T07:45:02;20.60;99.90
34768;DHT22;21755;43.608;1.236;2022-09-02T07:47:28;20.70;99.90
34768;DHT22;21755;43.608;1.236;2022-09-02T07:49:53;20.70;99.90
34768;DHT22;21755;43.608;1.236;2022-09-02T07:52:19;20.60;99.90
34768;DHT22;21755;43.608;1.236;2022-09-02T07:54:46;20.70;99.90
34768;DHT22;21755;43.608;1.236;2022-09-02T07:57:12;20.60;99.90
34768;DHT22;21755;43.608;1.236;2022-09-02T07:59:37;20.60;99.90
34768;DHT22;21755;43.608;1.236;2022-09-02T08:02:03;20.70;99.90
34768;DHT22;21755;43.608;1.236;2022-09-02T08:04:30;20.70;99.90
34768;DHT22;21755;43.608;1.236;2022-09-02T08:06:56;20.90;99.90
34768;DHT22;21755;43.608;1.236;2022-09-02T08:09:22;20.80;99.90
34768;DHT22;21755;43.608;1.236;2022-09-02T08:11:49;21.00;99.90
34768;DHT22;21755;43.608;1.236;2022-09-02T08:14:21;21.20;99.90
34768;DHT22;21755;43.608;1.236;2022-09-02T08:16:49;21.40;99.90
34768;DHT22;21755;43.608;1.236;2022-09-02T08:19:15;21.70;99.90
34768;DHT22;21755;43.608;1.236;2022-09-02T08:21:41;21.70;99.90
34768;DHT22;21755;43.608;1.236;2022-09-02T08:24:07;21.60;99.90
34768;DHT22;21755;43.608;1.236;2022-09-02T08:26:33;21.60;99.90
34768;DHT22;21755;43.608;1.236;2022-09-02T08:29:03;21.90;99.90
34768;DHT22;21755;43.608;1.236;2022-09-02T08:31:29;22.10;99.90
34768;DHT22;21755;43.608;1.236;2022-09-02T08:33:57;22.10;99.90
34768;DHT22;21755;43.608;1.236;2022-09-02T08:36:24;22.10;99.90
34768;DHT22;21755;43.608;1.236;2022-09-02T08:38:50;22.30;99.90
34768;DHT22;21755;43.608;1.236;2022-09-02T08:41:24;22.50;99.90
34768;DHT22;21755;43.608;1.236;2022-09-02T08:43:54;22.70;99.90
34768;DHT22;21755;43.608;1.236;2022-09-02T08:46:23;22.70;99.90
34768;DHT22;21755;43.608;1.236;2022-09-02T08:51:34;22.40;99.90
34768;DHT22;21755;43.608;1.236;2022-09-02T08:56:51;22.60;99.90
34768;DHT22;21755;43.608;1.236;2022-09-02T08:59:24;22.60;99.90
34768;DHT22;21755;43.608;1.236;2022-09-02T09:10:27;22.90;99.90
34768;DHT22;21755;43.608;1.236;2022-09-02T09:15:43;23.10;99.90
34768;DHT22;21755;43.608;1.236;2022-09-02T09:18:15;23.20;99.90
34768;DHT22;21755;43.608;1.236;2022-09-02T09:20:43;23.30;99.90
34768;DHT22;21755;43.608;1.236;2022-09-02T09:23:27;23.40;99.90
34768;DHT22;21755;43.608;1.236;2022-09-02T09:26:19;23.60;99.90
34768;DHT22;21755;43.608;1.236;2022-09-02T09:28:46;23.90;99.90
34768;DHT22;21755;43.608;1.236;2022-09-02T09:31:18;23.80;99.90
34768;DHT22;21755;43.608;1.236;2022-09-02T09:33:57;24.10;99.90
34768;DHT22;21755;43.608;1.236;2022-09-02T09:39:30;24.10;99.90
34768;DHT22;21755;43.608;1.236;2022-09-02T09:41:58;24.40;99.90
34768;DHT22;21755;43.608;1.236;2022-09-02T09:44:36;24.50;99.90
34768;DHT22;21755;43.608;1.236;2022-09-02T09:47:20;24.50;99.90
34768;DHT22;21755;43.608;1.236;2022-09-02T09:49:52;24.60;99.90
34768;DHT22;21755;43.608;1.236;2022-09-02T09:52:26;25.00;99.90
34768;DHT22;21755;43.608;1.236;2022-09-02T09:57:38;25.30;99.90
34768;DHT22;21755;43.608;1.236;2022-09-02T10:02:53;25.40;99.90
34768;DHT22;21755;43.608;1.236;2022-09-02T10:08:19;25.30;99.90
34768;DHT22;21755;43.608;1.236;2022-09-02T10:11:02;25.00;99.90
34768;DHT22;21755;43.608;1.236;2022-09-02T10:13:32;24.80;99.90
34768;DHT22;21755;43.608;1.236;2022-09-02T10:18:48;24.50;99.90
34768;DHT22;21755;43.608;1.236;2022-09-02T10:27:17;24.80;99.90
34768;DHT22;21755;43.608;1.236;2022-09-02T10:30:20;24.70;99.90
34768;DHT22;21755;43.608;1.236;2022-09-02T10:35:46;25.00;99.90
34768;DHT22;21755;43.608;1.236;2022-09-02T10:43:59;25.00;99.90
34768;DHT22;21755;43.608;1.236;2022-09-02T10:46:39;24.60;99.90
34768;DHT22;21755;43.608;1.236;2022-09-02T10:49:38;24.50;99.90
34768;DHT22;21755;43.608;1.236;2022-09-02T10:54:44;24.60;99.90
34768;DHT22;21755;43.608;1.236;2022-09-02T10:57:25;25.00;99.90
34768;DHT22;21755;43.608;1.236;2022-09-02T11:00:07;25.50;99.90
34768;DHT22;21755;43.608;1.236;2022-09-02T11:02:40;26.00;99.90
34768;DHT22;21755;43.608;1.236;2022-09-02T11:05:11;25.70;99.90
34768;DHT22;21755;43.608;1.236;2022-09-02T11:07:53;25.20;99.90
34768;DHT22;21755;43.608;1.236;2022-09-02T11:24:41;25.90;99.90
34768;DHT22;21755;43.608;1.236;2022-09-02T11:32:41;26.30;99.90
34768;DHT22;21755;43.608;1.236;2022-09-02T11:35:22;26.40;99.90
34768;DHT22;21755;43.608;1.236;2022-09-02T11:38:05;26.50;99.90
34768;DHT22;21755;43.608;1.236;2022-09-02T11:52:04;26.50;99.90
34768;DHT22;21755;43.608;1.236;2022-09-02T11:54:43;26.60;99.90
34768;DHT22;21755;43.608;1.236;2022-09-02T11:57:13;26.80;99.90
34768;DHT22;21755;43.608;1.236;2022-09-02T12:02:46;27.00;99.90
34768;DHT22;21755;43.608;1.236;2022-09-02T12:07:58;26.90;99.90
34768;DHT22;21755;43.608;1.236;2022-09-02T12:18:38;27.20;99.90
34768;DHT22;21755;43.608;1.236;2022-09-02T12:21:09;27.20;99.90
34768;DHT22;21755;43.608;1.236;2022-09-02T12:28:51;27.20;99.90
34768;DHT22;21755;43.608;1.236;2022-09-02T12:31:40;27.30;99.90
34768;DHT22;21755;43.608;1.236;2022-09-02T12:36:55;27.80;99.90
34768;DHT22;21755;43.608;1.236;2022-09-02T12:52:47;28.50;99.80
34768;DHT22;21755;43.608;1.236;2022-09-02T12:55:28;28.10;99.50
34768;DHT22;21755;43.608;1.236;2022-09-02T12:58:13;27.90;99.90
34768;DHT22;21755;43.608;1.236;2022-09-02T13:00:53;28.00;99.90
34768;DHT22;21755;43.608;1.236;2022-09-02T13:06:34;27.70;99.90
34768;DHT22;21755;43.608;1.236;2022-09-02T13:09:44;27.80;99.90
34768;DHT22;21755;43.608;1.236;2022-09-02T13:20:38;28.90;99.10
34768;DHT22;21755;43.608;1.236;2022-09-02T13:23:28;29.20;98.50
34768;DHT22;21755;43.608;1.236;2022-09-02T13:26:24;29.40;98.60
34768;DHT22;21755;43.608;1.236;2022-09-02T13:29:26;28.80;98.90
34768;DHT22;21755;43.608;1.236;2022-09-02T13:32:09;28.30;99.00
34768;DHT22;21755;43.608;1.236;2022-09-02T13:34:44;28.40;99.20
34768;DHT22;21755;43.608;1.236;2022-09-02T13:37:55;28.60;99.60
34768;DHT22;21755;43.608;1.236;2022-09-02T13:40:31;28.50;99.60
34768;DHT22;21755;43.608;1.236;2022-09-02T13:43:23;28.30;99.80
34768;DHT22;21755;43.608;1.236;2022-09-02T13:45:50;28.20;99.90
34768;DHT22;21755;43.608;1.236;2022-09-02T13:48:17;28.10;99.90
34768;DHT22;21755;43.608;1.236;2022-09-02T13:50:47;28.10;99.90
34768;DHT22;21755;43.608;1.236;2022-09-02T13:55:50;27.80;99.90
34768;DHT22;21755;43.608;1.236;2022-09-02T14:00:46;28.40;99.90
34768;DHT22;21755;43.608;1.236;2022-09-02T14:03:16;28.30;99.80
34768;DHT22;21755;43.608;1.236;2022-09-02T14:05:44;28.20;99.90
34768;DHT22;21755;43.608;1.236;2022-09-02T14:08:15;28.10;99.90
34768;DHT22;21755;43.608;1.236;2022-09-02T14:10:43;27.70;99.90
34768;DHT22;21755;43.608;1.236;2022-09-02T14:13:11;27.70;99.90
34768;DHT22;21755;43.608;1.236;2022-09-02T14:15:38;27.60;99.90
34768;DHT22;21755;43.608;1.236;2022-09-02T14:18:08;27.60;99.90
34768;DHT22;21755;43.608;1.236;2022-09-02T14:20:35;27.60;99.90
34768;DHT22;21755;43.608;1.236;2022-09-02T14:23:02;27.60;99.90
34768;DHT22;21755;43.608;1.236;2022-09-02T14:25:37;27.60;99.90
34768;DHT22;21755;43.608;1.236;2022-09-02T14:28:19;27.60;99.90
34768;DHT22;21755;43.608;1.236;2022-09-02T14:38:32;27.60;99.90
34768;DHT22;21755;43.608;1.236;2022-09-02T14:41:29;27.60;99.90
34768;DHT22;21755;43.608;1.236;2022-09-02T14:43:58;27.60;99.90
34768;DHT22;21755;43.608;1.236;2022-09-02T14:46:35;27.70;99.90
34768;DHT22;21755;43.608;1.236;2022-09-02T14:49:07;27.90;99.90
34768;DHT22;21755;43.608;1.236;2022-09-02T14:51:45;28.00;99.80
34768;DHT22;21755;43.608;1.236;2022-09-02T14:54:11;27.70;99.90
34768;DHT22;21755;43.608;1.236;2022-09-02T14:56:57;27.70;99.90
34768;DHT22;21755;43.608;1.236;2022-09-02T14:59:23;27.80;99.90
34768;DHT22;21755;43.608;1.236;2022-09-02T15:01:51;27.80;99.90
34768;DHT22;21755;43.608;1.236;2022-09-02T15:04:18;27.90;99.90
34768;DHT22;21755;43.608;1.236;2022-09-02T15:06:44;27.70;99.70
34768;DHT22;21755;43.608;1.236;2022-09-02T15:09:12;28.10;99.90
34768;DHT22;21755;43.608;1.236;2022-09-02T15:11:41;28.20;99.90
34768;DHT22;21755;43.608;1.236;2022-09-02T15:14:07;28.30;99.20
34768;DHT22;21755;43.608;1.236;2022-09-02T15:16:33;28.50;98.90
34768;DHT22;21755;43.608;1.236;2022-09-02T15:18:58;28.70;98.80
34768;DHT22;21755;43.608;1.236;2022-09-02T15:21:24;28.80;98.70
34768;DHT22;21755;43.608;1.236;2022-09-02T15:23:50;28.80;98.10
34768;DHT22;21755;43.608;1.236;2022-09-02T15:26:16;28.60;98.00
34768;DHT22;21755;43.608;1.236;2022-09-02T15:28:42;28.60;98.20
34768;DHT22;21755;43.608;1.236;2022-09-02T15:31:10;28.40;98.30
34768;DHT22;21755;43.608;1.236;2022-09-02T15:33:36;28.30;98.40
34768;DHT22;21755;43.608;1.236;2022-09-02T15:36:10;28.30;98.60
34768;DHT22;21755;43.608;1.236;2022-09-02T15:38:36;28.30;99.10
34768;DHT22;21755;43.608;1.236;2022-09-02T15:41:17;28.30;98.50
34768;DHT22;21755;43.608;1.236;2022-09-02T15:43:44;28.40;99.30
34768;DHT22;21755;43.608;1.236;2022-09-02T15:46:26;28.60;98.70
34768;DHT22;21755;43.608;1.236;2022-09-02T15:48:54;28.90;98.70
34768;DHT22;21755;43.608;1.236;2022-09-02T15:51:22;29.00;98.00
34768;DHT22;21755;43.608;1.236;2022-09-02T15:54:00;29.00;97.80
34768;DHT22;21755;43.608;1.236;2022-09-02T15:56:27;28.90;97.70
34768;DHT22;21755;43.608;1.236;2022-09-02T15:59:05;28.70;97.40
34768;DHT22;21755;43.608;1.236;2022-09-02T16:01:35;28.60;97.60
34768;DHT22;21755;43.608;1.236;2022-09-02T16:04:03;28.50;97.70
34768;DHT22;21755;43.608;1.236;2022-09-02T16:06:31;28.40;98.10
34768;DHT22;21755;43.608;1.236;2022-09-02T16:08:57;28.60;97.50
34768;DHT22;21755;43.608;1.236;2022-09-02T16:11:24;28.70;97.60
34768;DHT22;21755;43.608;1.236;2022-09-02T16:13:51;28.40;98.00
34768;DHT22;21755;43.608;1.236;2022-09-02T16:16:17;28.30;98.20
34768;DHT22;21755;43.608;1.236;2022-09-02T16:18:47;27.90;98.20
34768;DHT22;21755;43.608;1.236;2022-09-02T16:21:13;27.80;98.60
34768;DHT22;21755;43.608;1.236;2022-09-02T16:23:39;27.70;98.80
34768;DHT22;21755;43.608;1.236;2022-09-02T16:28:38;27.60;99.30
34768;DHT22;21755;43.608;1.236;2022-09-02T16:31:06;27.50;99.50
34768;DHT22;21755;43.608;1.236;2022-09-02T16:33:33;27.70;99.60
34768;DHT22;21755;43.608;1.236;2022-09-02T16:35:59;27.60;99.40
34768;DHT22;21755;43.608;1.236;2022-09-02T16:38:25;27.50;99.50
34768;DHT22;21755;43.608;1.236;2022-09-02T16:40:52;27.50;98.90
34768;DHT22;21755;43.608;1.236;2022-09-02T16:43:19;27.50;98.60
34768;DHT22;21755;43.608;1.236;2022-09-02T16:45:47;27.70;98.30
34768;DHT22;21755;43.608;1.236;2022-09-02T16:48:13;27.80;98.00
34768;DHT22;21755;43.608;1.236;2022-09-02T16:50:39;27.90;97.80
34768;DHT22;21755;43.608;1.236;2022-09-02T16:53:05;27.90;97.60
34768;DHT22;21755;43.608;1.236;2022-09-02T16:55:31;27.80;97.70
34768;DHT22;21755;43.608;1.236;2022-09-02T16:57:57;27.70;97.80
34768;DHT22;21755;43.608;1.236;2022-09-02T17:00:27;27.70;98.20
34768;DHT22;21755;43.608;1.236;2022-09-02T17:02:53;27.70;97.70
34768;DHT22;21755;43.608;1.236;2022-09-02T17:05:19;27.60;98.30
34768;DHT22;21755;43.608;1.236;2022-09-02T17:07:45;27.60;98.10
34768;DHT22;21755;43.608;1.236;2022-09-02T17:12:40;27.30;97.60
34768;DHT22;21755;43.608;1.236;2022-09-02T17:15:06;27.20;97.60
34768;DHT22;21755;43.608;1.236;2022-09-02T17:17:32;27.10;97.70
34768;DHT22;21755;43.608;1.236;2022-09-02T17:19:58;27.00;97.90
34768;DHT22;21755;43.608;1.236;2022-09-02T17:22:24;27.00;98.30
34768;DHT22;21755;43.608;1.236;2022-09-02T17:24:50;27.00;98.50
34768;DHT22;21755;43.608;1.236;2022-09-02T17:27:16;27.00;98.50
34768;DHT22;21755;43.608;1.236;2022-09-02T17:29:42;27.10;98.40
34768;DHT22;21755;43.608;1.236;2022-09-02T17:32:08;27.20;98.60
34768;DHT22;21755;43.608;1.236;2022-09-02T17:34:35;27.20;98.60
34768;DHT22;21755;43.608;1.236;2022-09-02T17:37:01;27.10;98.70
34768;DHT22;21755;43.608;1.236;2022-09-02T17:39:27;27.00;98.90
34768;DHT22;21755;43.608;1.236;2022-09-02T17:41:53;27.00;99.00
34768;DHT22;21755;43.608;1.236;2022-09-02T17:44:21;26.90;99.20
34768;DHT22;21755;43.608;1.236;2022-09-02T17:46:48;26.90;99.30
34768;DHT22;21755;43.608;1.236;2022-09-02T17:49:14;26.80;99.40
34768;DHT22;21755;43.608;1.236;2022-09-02T17:51:40;26.80;99.60
34768;DHT22;21755;43.608;1.236;2022-09-02T17:54:08;26.60;98.50
34768;DHT22;21755;43.608;1.236;2022-09-02T18:02:35;26.40;98.70
34768;DHT22;21755;43.608;1.236;2022-09-02T18:10:37;26.20;99.10
34768;DHT22;21755;43.608;1.236;2022-09-02T18:13:06;26.20;99.10
34768;DHT22;21755;43.608;1.236;2022-09-02T18:24:26;25.70;99.90
34768;DHT22;21755;43.608;1.236;2022-09-02T18:30:04;25.50;99.90
34768;DHT22;21755;43.608;1.236;2022-09-02T18:32:53;25.40;99.90